Latest Weather Observations for Khancoban

IDN60801

Issued at 11:04 pm EDT Saturday 20 December 2014 (issued every 30 minutes, with the page automatically refreshed every 10 minutes)

About weather observations | Map of weather stations | Latest weather observations for NSW | Other Formats
Station Details ID: 072162 Name: KHANCOBAN AWS Lat: -36.23 Lon: 148.14 Height: 339.3 m
Data from the previous 72 hours. | See also: Recent months at Khancoban
Date/Time
EDT
Temp
°C
App
Temp
°C
Dew
Point
Rel
Hum
%
Delta-T
°C
Wind Press
QNH
hPa
Press
MSL
hPa
Rain
since 9 am
mm
Dir
 
Spd
km/h
Gust
km/h
Spd
kts
Gust
kts
20/11:00pm 16.8 17.8 13.1 79 2.1 CALM 0 0 0 0 1016.0 1014.8 -
20/10:30pm 16.8 16.4 13.1 79 2.1 SE 7 11 4 6 1016.0 1014.8 0.0
20/10:00pm 17.3 16.8 12.8 75 2.5 SE 7 11 4 6 1015.7 1014.5 0.0
20/09:30pm 18.9 18.8 13.3 70 3.2 NW 6 7 3 4 1015.3 1014.1 0.0
20/09:00pm 19.0 18.4 13.6 71 3.1 SSW 9 11 5 6 1015.0 1013.9 0.0
20/08:30pm 20.0 19.6 13.0 64 4.0 WNW 7 9 4 5 1014.6 1013.5 0.0
20/08:00pm 23.8 23.1 12.1 48 6.8 WNW 7 7 4 4 1014.3 1013.2 0.0
20/07:30pm 27.5 27.7 10.7 35 9.6 CALM 0 0 0 0 1014.0 1012.9 0.0
20/07:00pm 27.7 26.7 9.0 31 10.4 SE 4 9 2 5 1013.8 1012.6 0.0
20/06:30pm 28.4 27.6 9.6 31 10.6 W 4 9 2 5 1013.6 1012.4 0.0
20/05:30pm 27.7 26.3 9.5 32 10.2 NE 7 11 4 6 1013.5 1012.3 0.0
20/05:00pm 27.4 26.0 8.8 31 10.3 WNW 6 9 3 5 1013.7 1012.5 0.0
20/04:30pm 27.3 25.3 8.7 31 10.3 NNW 9 17 5 9 1014.0 1012.9 0.0
20/04:00pm 26.8 24.7 8.3 31 10.2 ENE 9 15 5 8 1014.5 1013.4 0.0
20/03:30pm 26.6 24.0 7.6 30 10.3 WNW 11 20 6 11 1014.9 1013.8 0.0
20/03:00pm 26.0 23.8 8.0 32 9.8 NW 9 17 5 9 1015.4 1014.2 0.0
20/02:30pm 25.3 23.0 7.4 32 9.6 NW 9 19 5 10 1015.8 1014.6 0.0
20/02:00pm 25.5 23.2 7.6 32 9.6 WSW 9 15 5 8 1016.0 1014.8 0.0
20/01:30pm 24.5 23.4 8.5 36 8.7 S 4 9 2 5 1016.3 1015.1 0.0
20/01:00pm 23.7 21.3 6.9 34 8.8 NNE 9 15 5 8 1016.6 1015.5 0.0
20/12:30pm 23.2 20.5 7.3 36 8.4 NNE 11 15 6 8 1017.0 1015.9 0.0
20/12:00pm 22.8 20.8 7.0 36 8.3 NE 7 11 4 6 1017.3 1016.2 0.0
20/11:30am 21.7 19.3 7.2 39 7.6 NNW 9 15 5 8 1017.7 1016.6 0.0
20/11:00am 20.7 17.8 6.3 39 7.3 WNW 11 19 6 10 1017.9 1016.8 0.0
20/10:30am 19.7 17.9 7.8 46 6.2 NNE 7 13 4 7 1018.0 1016.9 0.0
20/10:00am 19.2 18.3 9.1 52 5.4 NNW 4 9 2 5 1018.2 1017.1 0.0
20/09:30am 17.1 15.5 8.0 55 4.7 WNW 6 11 3 6 1018.2 1017.1 0.0
20/09:00am 16.5 15.2 7.7 56 4.5 WNW 4 9 2 5 1018.0 1016.9 0.0
20/08:30am 15.5 13.9 7.8 60 3.9 NE 6 9 3 5 1018.0 1016.9 0.0
20/08:00am 14.1 12.7 7.2 63 3.4 ENE 4 9 2 5 1017.9 1016.8 0.0
20/07:30am 13.2 12.8 8.3 72 2.5 CALM 0 0 0 0 1017.7 1016.6 0.0
20/07:00am 10.7 9.5 9.5 92 0.6 E 6 7 3 4 1017.7 1016.6 0.0
20/06:30am 8.8 8.4 8.4 97 0.2 CALM 0 0 0 0 1017.5 1016.4 0.0
20/05:30am 9.2 8.7 8.0 92 0.6 CALM 0 7 0 4 1017.0 1015.9 0.0
20/05:00am 9.2 8.8 8.1 93 0.5 CALM 0 0 0 0 1016.9 1015.8 0.0
20/04:30am 9.9 9.4 8.0 88 0.9 CALM 0 0 0 0 1016.8 1015.7 0.0
20/04:00am 9.9 9.4 7.7 86 1.1 CALM 0 6 0 3 1016.7 1015.6 0.0
20/03:30am 10.0 7.7 7.6 85 1.2 N 9 13 5 7 1016.6 1015.5 0.0
20/03:00am 11.1 10.6 8.0 81 1.5 CALM 0 6 0 3 1016.7 1015.6 0.0
20/02:30am 11.3 9.5 7.8 79 1.7 NE 7 11 4 6 1016.6 1015.5 0.0
20/02:00am 11.4 10.6 8.1 80 1.6 N 2 9 1 5 1016.7 1015.6 0.0
20/01:30am 11.1 10.8 8.5 84 1.3 CALM 0 0 0 0 1016.9 1015.8 0.0
20/01:00am 11.4 10.6 8.3 81 1.5 NNW 2 6 1 3 1016.9 1015.8 0.0
20/12:30am 11.8 10.7 8.5 80 1.7 ESE 4 7 2 4 1016.8 1015.7 0.0
20/12:00am 12.7 11.3 8.8 77 2.0 E 6 7 3 4 1016.8 1015.7 0.0
 
Date/Time
EDT
Temp
°C
App
Temp
°C
Dew
Point
Rel
Hum
%
Delta-T
°C
Wind Press
QNH
hPa
Press
MSL
hPa
Rain
since 9 am
mm
Dir
 
Spd
km/h
Gust
km/h
Spd
kts
Gust
kts
19/11:30pm 13.6 12.5 8.4 71 2.6 NE 4 7 2 4 1016.6 1015.5 0.0
19/11:00pm 13.3 11.8 8.6 73 2.4 SSE 6 9 3 5 1016.6 1015.5 0.0
19/10:30pm 14.3 13.9 8.3 67 3.1 CALM 0 6 0 3 1016.3 1015.1 0.0
19/10:00pm 15.5 15.0 8.0 61 3.8 CALM 0 0 0 0 1016.0 1014.8 0.0
19/09:30pm 16.6 15.8 8.1 57 4.4 S 2 7 1 4 1015.7 1014.5 0.0
19/09:00pm 17.0 15.4 7.9 55 4.7 WNW 6 9 3 5 1015.4 1014.2 0.0
19/08:30pm 17.6 17.2 8.2 54 4.9 CALM 0 4 0 2 1014.9 1013.8 0.0
19/08:00pm 20.4 18.1 7.4 43 6.8 SSW 9 11 5 6 1014.4 1013.3 0.0
19/07:30pm 23.1 20.7 6.8 35 8.5 SW 9 11 5 6 1014.0 1012.9 0.0
19/07:00pm 23.7 20.4 4.6 29 9.6 SSW 11 17 6 9 1013.6 1012.4 0.0
19/06:30pm 24.2 21.5 5.5 30 9.6 WSW 9 15 5 8 1013.1 1011.9 0.0
19/06:00pm 24.6 21.3 4.4 27 10.2 W 11 17 6 9 1012.9 1011.7 0.0
19/05:30pm 23.7 20.2 3.6 27 10.0 W 11 19 6 10 1012.7 1011.5 0.0
19/05:00pm 23.8 20.1 4.7 29 9.7 N 13 19 7 10 1012.8 1011.6 0.0
19/04:30pm 24.2 22.5 6.0 31 9.5 NW 4 11 2 6 1012.9 1011.7 0.0
19/04:00pm 22.6 19.6 4.2 30 9.2 NNW 9 17 5 9 1012.8 1011.6 0.0
19/03:30pm 24.1 20.5 5.0 29 9.7 NNW 13 20 7 11 1012.9 1011.7 0.0
19/03:00pm 23.6 19.3 3.5 27 9.9 NNW 15 26 8 14 1013.1 1011.9 0.0
19/02:30pm 22.6 20.3 4.6 31 9.0 ENE 6 13 3 7 1013.2 1012.0 0.0
19/02:00pm 22.0 17.9 4.1 31 8.9 N 15 20 8 11 1013.4 1012.2 0.0
19/01:30pm 22.0 19.3 5.8 35 8.3 NW 9 20 5 11 1013.5 1012.3 0.0
19/01:00pm 21.8 19.3 4.8 33 8.5 SW 7 17 4 9 1013.6 1012.4 0.0
19/12:30pm 21.1 18.1 4.2 33 8.3 SW 9 15 5 8 1013.8 1012.6 0.0
19/12:00pm 20.7 17.5 5.1 36 7.8 NW 11 19 6 10 1013.8 1012.6 0.0
19/11:30am 19.8 17.2 6.2 41 6.9 WNW 9 19 5 10 1013.9 1012.7 0.0
19/11:00am 19.3 15.8 5.4 40 6.9 W 13 19 7 10 1013.8 1012.6 0.0
19/10:30am 19.5 17.1 5.2 39 7.1 WSW 7 15 4 8 1013.9 1012.7 0.0
19/10:00am 18.3 15.3 4.1 39 6.8 WSW 9 17 5 9 1013.8 1012.6 0.0
19/09:30am 17.6 14.3 4.5 42 6.3 S 11 17 6 9 1013.8 1012.6 0.0
19/09:00am 17.1 14.7 7.2 52 5.0 WSW 9 17 5 9 1013.8 1012.6 0.0
19/08:30am 15.6 14.7 7.6 59 4.1 WNW 2 7 1 4 1013.8 1012.6 0.0
19/08:00am 14.2 13.8 8.2 67 3.1 CALM 0 0 0 0 1013.4 1012.2 0.0
19/07:30am 12.0 11.6 8.3 78 1.9 CALM 0 0 0 0 1013.2 1012.0 0.0
19/07:00am 9.8 9.8 9.7 99 0.1 CALM 0 0 0 0 1013.0 1011.8 0.0
19/06:30am 9.0 8.7 8.7 98 0.1 CALM 0 0 0 0 1012.6 1011.4 0.0
19/06:00am 8.5 7.6 7.7 95 0.4 S 2 6 1 3 1011.9 1010.8 0.0
19/05:30am 8.7 7.0 7.5 92 0.6 E 6 7 3 4 1011.4 1010.3 0.0
19/05:00am 8.0 6.8 6.6 91 0.7 NE 2 9 1 5 1010.9 1009.7 0.0
19/04:30am 8.9 8.3 7.5 91 0.7 CALM 0 0 0 0 1010.4 1009.2 0.0
19/04:00am 9.7 9.0 6.8 82 1.4 CALM 0 0 0 0 1010.0 1008.8 0.0
19/03:30am 10.5 8.8 7.4 81 1.5 SSE 6 9 3 5 1010.0 1008.8 0.0
19/03:00am 11.1 9.7 7.2 77 1.9 NE 4 7 2 4 1010.1 1008.9 0.0
19/02:30am 12.2 10.4 7.1 71 2.5 SE 6 11 3 6 1010.2 1009.0 0.0
19/02:00am 13.2 12.1 6.8 65 3.1 ENE 2 9 1 5 1010.2 1009.0 0.0
19/01:30am 13.3 11.4 6.6 64 3.3 ENE 6 9 3 5 1010.3 1009.1 0.0
19/01:00am 14.3 13.0 5.9 57 4.1 N 2 7 1 4 1010.6 1009.4 0.0
19/12:30am 15.2 12.9 5.7 53 4.6 NE 7 13 4 7 1010.4 1009.2 0.0
19/12:00am 16.5 15.6 6.1 50 5.2 CALM 0 9 0 5 1010.4 1009.2 0.0
 
Date/Time
EDT
Temp
°C
App
Temp
°C
Dew
Point
Rel
Hum
%
Delta-T
°C
Wind Press
QNH
hPa
Press
MSL
hPa
Rain
since 9 am
mm
Dir
 
Spd
km/h
Gust
km/h
Spd
kts
Gust
kts
18/11:30pm 18.5 14.8 4.3 39 6.9 N 13 17 7 9 1010.2 1009.0 0.0
18/11:00pm 18.8 15.0 3.8 37 7.2 N 13 20 7 11 1009.9 1008.7 0.0
18/10:30pm 19.7 14.7 3.8 35 7.7 NNW 19 26 10 14 1009.4 1008.2 0.0
18/10:00pm 19.8 16.0 3.9 35 7.7 NNW 13 19 7 10 1009.2 1008.0 0.0
18/09:30pm 21.2 17.4 3.9 32 8.5 WNW 13 24 7 13 1008.5 1007.3 0.0
18/09:00pm 21.6 17.1 4.2 32 8.6 NW 17 26 9 14 1008.0 1006.8 0.0
18/08:30pm 22.7 18.0 3.3 28 9.5 W 17 24 9 13 1007.4 1006.2 0.0
18/08:00pm 23.3 18.2 3.3 27 9.9 WNW 19 24 10 13 1007.0 1005.8 0.0
18/07:30pm 23.5 19.2 3.4 27 9.9 W 15 24 8 13 1006.6 1005.4 0.0
18/07:00pm 25.3 19.9 2.7 23 11.2 W 20 33 11 18 1006.3 1005.1 0.0
18/06:30pm 24.6 18.4 2.1 23 10.9 WNW 24 35 13 19 1006.1 1004.8 0.0
18/06:00pm 25.5 20.1 2.2 22 11.4 WNW 20 35 11 19 1005.4 1004.2 0.0
18/05:30pm 26.2 20.2 3.4 23 11.4 W 24 37 13 20 1005.3 1004.1 0.0
18/05:00pm 27.1 22.0 4.2 23 11.8 WNW 20 35 11 19 1005.1 1003.9 0.0
18/04:30pm 27.4 23.0 4.5 23 11.8 WNW 17 28 9 15 1005.3 1004.1 0.0
18/04:00pm 26.4 21.6 4.8 25 11.2 WNW 19 30 10 16 1005.5 1004.3 0.0
18/03:30pm 25.6 22.0 5.2 27 10.5 NW 13 19 7 10 1006.0 1004.7 0.0
18/03:00pm 26.6 22.4 5.5 26 11.1 WNW 17 28 9 15 1006.1 1004.8 0.0
18/02:30pm 26.6 22.5 6.1 27 10.8 WNW 17 28 9 15 1006.2 1004.9 0.0
18/02:00pm 25.8 22.4 5.9 28 10.5 NNW 13 30 7 16 1006.6 1005.4 0.0
18/01:30pm 25.5 23.0 6.7 30 10.0 NW 9 30 5 16 1006.9 1005.7 0.0
18/01:00pm 24.2 20.5 4.6 28 10.0 W 13 22 7 12 1007.4 1006.2 0.0
18/12:30pm 23.6 20.1 3.5 27 9.9 WNW 11 20 6 11 1007.6 1006.4 0.0
18/12:00pm 23.8 20.9 4.7 29 9.7 NW 9 19 5 10 1007.9 1006.7 0.0
18/11:30am 23.0 19.4 3.0 27 9.8 NW 11 20 6 11 1008.1 1006.9 0.0
18/11:00am 22.0 18.4 3.2 29 9.2 WNW 11 17 6 9 1008.3 1007.1 0.0
18/10:30am 21.3 19.3 6.4 38 7.7 SW 6 9 3 5 1008.6 1007.4 0.0
18/10:00am 19.6 17.5 6.0 41 6.9 WSW 6 11 3 6 1009.1 1007.9 0.0
18/09:30am 18.1 16.0 6.0 45 6.0 N 6 9 3 5 1009.3 1008.1 0.0
18/09:00am 16.6 15.3 6.1 50 5.2 NE 2 7 1 4 1009.6 1008.4 0.0
18/08:30am 14.7 14.0 7.0 60 3.8 CALM 0 0 0 0 1009.6 1008.4 0.0
18/08:00am 13.1 12.6 7.8 70 2.7 CALM 0 6 0 3 1009.7 1008.5 0.0
18/07:30am 11.2 10.6 8.8 85 1.2 W 2 6 1 3 1010.0 1008.8 0.0
18/07:00am 9.2 8.8 8.4 95 0.4 CALM 0 0 0 0 1009.8 1008.6 0.0
18/06:30am 7.9 7.3 7.3 96 0.3 CALM 0 0 0 0 1009.3 1008.1 0.0
18/06:00am 8.2 7.6 7.4 95 0.4 CALM 0 0 0 0 1008.7 1007.5 0.0
18/05:30am 8.4 7.8 7.5 94 0.4 CALM 0 0 0 0 1008.4 1007.2 0.0
18/05:00am 9.1 8.6 7.9 92 0.6 CALM 0 6 0 3 1008.4 1007.2 0.0
18/04:30am 9.4 8.9 7.7 89 0.8 CALM 0 0 0 0 1008.2 1007.0 0.0
18/04:00am 9.6 7.9 7.5 87 1.0 NNW 6 7 3 4 1007.6 1006.4 0.0
18/03:30am 9.6 9.1 8.0 90 0.8 CALM 0 0 0 0 1007.6 1006.4 0.0
18/03:00am 9.3 8.8 7.7 90 0.8 CALM 0 0 0 0 1007.3 1006.1 0.0
18/02:30am 9.4 8.9 7.8 90 0.8 CALM 0 0 0 0 1007.4 1006.2 0.0
18/02:00am 10.1 9.2 7.9 86 1.1 NNW 2 6 1 3 1007.5 1006.3 0.0
18/01:30am 9.5 8.8 7.1 85 1.2 CALM 0 6 0 3 1007.5 1006.3 0.0
18/01:00am 9.9 9.5 8.3 90 0.8 CALM 0 6 0 3 1007.5 1006.3 0.0
18/12:30am 10.5 10.1 8.3 86 1.1 CALM 0 0 0 0 1007.5 1006.3 0.0
18/12:00am 10.8 10.5 8.6 86 1.1 CALM 0 0 0 0 1007.6 1006.4 0.0
 
Date/Time
EDT
Temp
°C
App
Temp
°C
Dew
Point
Rel
Hum
%
Delta-T
°C
Wind Press
QNH
hPa
Press
MSL
hPa
Rain
since 9 am
mm
Dir
 
Spd
km/h
Gust
km/h
Spd
kts
Gust
kts
17/11:30pm 12.0 11.6 8.3 78 1.9 CALM 0 0 0 0 1007.6 1006.4 0.0

Other Formats:

Comma delimited format used in spreadsheet applications
http://www.bom.gov.au/fwo/IDN60801/IDN60801.94919.axf

JavaScript Object Notation format (JSON) in row-major order
http://www.bom.gov.au/fwo/IDN60801/IDN60801.94919.json